sensor_id;sensor_type;location;lat;lon;timestamp;temperature;humidity
28715;DHT22;15886;49.170;14.572;2022-09-09T00:23:34;18.10;95.80
28715;DHT22;15886;49.170;14.572;2022-09-09T00:26:51;18.00;95.70
28715;DHT22;15886;49.170;14.572;2022-09-09T00:33:53;17.90;95.10
28715;DHT22;15886;49.170;14.572;2022-09-09T00:37:12;17.90;95.20
28715;DHT22;15886;49.170;14.572;2022-09-09T00:39:50;17.80;95.20
28715;DHT22;15886;49.170;14.572;2022-09-09T00:42:41;17.80;95.10
28715;DHT22;15886;49.170;14.572;2022-09-09T00:48:26;17.70;95.20
28715;DHT22;15886;49.170;14.572;2022-09-09T00:51:09;17.60;95.20
28715;DHT22;15886;49.170;14.572;2022-09-09T00:57:41;17.60;95.10
28715;DHT22;15886;49.170;14.572;2022-09-09T01:00:38;17.50;95.10
28715;DHT22;15886;49.170;14.572;2022-09-09T01:03:21;17.50;94.60
28715;DHT22;15886;49.170;14.572;2022-09-09T01:09:00;17.50;95.00
28715;DHT22;15886;49.170;14.572;2022-09-09T01:26:22;17.40;94.80
28715;DHT22;15886;49.170;14.572;2022-09-09T01:28:58;17.30;95.20
28715;DHT22;15886;49.170;14.572;2022-09-09T01:31:41;17.30;95.40
28715;DHT22;15886;49.170;14.572;2022-09-09T01:34:14;17.30;95.50
28715;DHT22;15886;49.170;14.572;2022-09-09T01:39:28;17.20;95.30
28715;DHT22;15886;49.170;14.572;2022-09-09T01:42:03;17.20;95.40
28715;DHT22;15886;49.170;14.572;2022-09-09T01:44:34;17.20;95.40
28715;DHT22;15886;49.170;14.572;2022-09-09T01:47:08;17.20;95.70
28715;DHT22;15886;49.170;14.572;2022-09-09T01:50:23;17.20;95.70
28715;DHT22;15886;49.170;14.572;2022-09-09T01:54:08;17.20;96.30
28715;DHT22;15886;49.170;14.572;2022-09-09T02:09:16;17.10;97.10
28715;DHT22;15886;49.170;14.572;2022-09-09T02:12:03;17.00;97.70
28715;DHT22;15886;49.170;14.572;2022-09-09T02:14:52;17.00;97.80
28715;DHT22;15886;49.170;14.572;2022-09-09T02:17:46;16.90;97.90
28715;DHT22;15886;49.170;14.572;2022-09-09T02:20:27;16.90;98.10
28715;DHT22;15886;49.170;14.572;2022-09-09T02:23:02;16.90;97.90
28715;DHT22;15886;49.170;14.572;2022-09-09T02:25:53;16.90;98.10
28715;DHT22;15886;49.170;14.572;2022-09-09T02:28:26;16.90;98.10
28715;DHT22;15886;49.170;14.572;2022-09-09T02:30:59;16.90;97.80
28715;DHT22;15886;49.170;14.572;2022-09-09T02:33:41;17.00;97.60
28715;DHT22;15886;49.170;14.572;2022-09-09T02:36:12;17.00;97.60
28715;DHT22;15886;49.170;14.572;2022-09-09T02:44:51;17.00;97.40
28715;DHT22;15886;49.170;14.572;2022-09-09T02:47:38;17.10;97.50
28715;DHT22;15886;49.170;14.572;2022-09-09T02:54:40;17.20;97.60
28715;DHT22;15886;49.170;14.572;2022-09-09T02:57:20;17.30;98.00
28715;DHT22;15886;49.170;14.572;2022-09-09T02:59:51;17.20;97.90
28715;DHT22;15886;49.170;14.572;2022-09-09T03:02:22;17.30;98.00
28715;DHT22;15886;49.170;14.572;2022-09-09T03:04:57;17.30;97.60
28715;DHT22;15886;49.170;14.572;2022-09-09T03:07:26;17.20;97.50
28715;DHT22;15886;49.170;14.572;2022-09-09T03:09:58;17.20;97.20
28715;DHT22;15886;49.170;14.572;2022-09-09T03:12:28;17.20;97.30
28715;DHT22;15886;49.170;14.572;2022-09-09T03:14:56;17.20;97.60
28715;DHT22;15886;49.170;14.572;2022-09-09T03:17:24;17.20;97.50
28715;DHT22;15886;49.170;14.572;2022-09-09T03:19:54;17.20;97.40
28715;DHT22;15886;49.170;14.572;2022-09-09T03:22:24;17.20;97.50
28715;DHT22;15886;49.170;14.572;2022-09-09T03:24:58;17.20;97.50
28715;DHT22;15886;49.170;14.572;2022-09-09T03:27:27;17.20;97.60
28715;DHT22;15886;49.170;14.572;2022-09-09T03:29:56;17.20;97.60
28715;DHT22;15886;49.170;14.572;2022-09-09T03:32:25;17.20;97.50
28715;DHT22;15886;49.170;14.572;2022-09-09T03:34:57;17.20;97.50
28715;DHT22;15886;49.170;14.572;2022-09-09T03:37:25;17.20;97.50
28715;DHT22;15886;49.170;14.572;2022-09-09T03:39:54;17.10;97.50
28715;DHT22;15886;49.170;14.572;2022-09-09T03:42:26;17.10;97.60
28715;DHT22;15886;49.170;14.572;2022-09-09T03:44:59;17.10;97.60
28715;DHT22;15886;49.170;14.572;2022-09-09T03:47:31;17.10;97.60
28715;DHT22;15886;49.170;14.572;2022-09-09T03:50:06;17.10;97.70
28715;DHT22;15886;49.170;14.572;2022-09-09T03:52:39;17.10;97.80
28715;DHT22;15886;49.170;14.572;2022-09-09T03:55:15;17.00;98.00
28715;DHT22;15886;49.170;14.572;2022-09-09T03:57:44;16.90;97.90
28715;DHT22;15886;49.170;14.572;2022-09-09T04:00:24;16.80;98.10
28715;DHT22;15886;49.170;14.572;2022-09-09T04:02:54;16.60;98.30
28715;DHT22;15886;49.170;14.572;2022-09-09T04:08:21;16.50;98.30
28715;DHT22;15886;49.170;14.572;2022-09-09T04:10:50;16.60;98.40
28715;DHT22;15886;49.170;14.572;2022-09-09T04:16:36;16.60;98.50
28715;DHT22;15886;49.170;14.572;2022-09-09T04:20:10;16.50;98.40
28715;DHT22;15886;49.170;14.572;2022-09-09T04:23:11;16.60;98.90
28715;DHT22;15886;49.170;14.572;2022-09-09T04:25:53;16.50;98.60
28715;DHT22;15886;49.170;14.572;2022-09-09T04:29:01;16.50;98.50
28715;DHT22;15886;49.170;14.572;2022-09-09T04:31:30;16.60;98.50
28715;DHT22;15886;49.170;14.572;2022-09-09T04:33:59;16.60;98.20
28715;DHT22;15886;49.170;14.572;2022-09-09T04:36:37;16.70;98.20
28715;DHT22;15886;49.170;14.572;2022-09-09T04:39:35;16.70;98.20
28715;DHT22;15886;49.170;14.572;2022-09-09T04:42:39;16.80;98.20
28715;DHT22;15886;49.170;14.572;2022-09-09T04:45:43;16.90;98.20
28715;DHT22;15886;49.170;14.572;2022-09-09T04:51:55;16.80;97.90
28715;DHT22;15886;49.170;14.572;2022-09-09T04:54:32;16.90;97.80
28715;DHT22;15886;49.170;14.572;2022-09-09T04:57:07;16.80;97.80
28715;DHT22;15886;49.170;14.572;2022-09-09T04:59:52;16.80;98.00
28715;DHT22;15886;49.170;14.572;2022-09-09T05:02:21;16.70;98.10
28715;DHT22;15886;49.170;14.572;2022-09-09T05:14:09;16.80;97.70
28715;DHT22;15886;49.170;14.572;2022-09-09T08:10:04;19.20;99.20
28715;DHT22;15886;49.170;14.572;2022-09-09T08:16:58;19.50;99.20
28715;DHT22;15886;49.170;14.572;2022-09-09T08:38:56;19.90;98.50
28715;DHT22;15886;49.170;14.572;2022-09-09T08:52:01;20.50;99.10
28715;DHT22;15886;49.170;14.572;2022-09-09T08:54:58;20.70;98.60
28715;DHT22;15886;49.170;14.572;2022-09-09T08:58:14;20.80;98.40
28715;DHT22;15886;49.170;14.572;2022-09-09T09:17:27;21.40;97.30
28715;DHT22;15886;49.170;14.572;2022-09-09T09:20:11;21.40;97.30
28715;DHT22;15886;49.170;14.572;2022-09-09T09:23:01;21.40;97.50
28715;DHT22;15886;49.170;14.572;2022-09-09T09:26:36;21.40;97.80
28715;DHT22;15886;49.170;14.572;2022-09-09T09:36:57;21.70;97.60
28715;DHT22;15886;49.170;14.572;2022-09-09T09:39:34;21.90;97.50
28715;DHT22;15886;49.170;14.572;2022-09-09T09:42:48;22.00;97.60
28715;DHT22;15886;49.170;14.572;2022-09-09T09:47:30;22.00;94.50
28715;DHT22;15886;49.170;14.572;2022-09-09T09:50:26;21.90;93.30
28715;DHT22;15886;49.170;14.572;2022-09-09T09:52:59;21.90;93.80
28715;DHT22;15886;49.170;14.572;2022-09-09T09:55:35;21.90;93.20
28715;DHT22;15886;49.170;14.572;2022-09-09T09:58:54;21.90;92.80
28715;DHT22;15886;49.170;14.572;2022-09-09T10:02:14;21.90;93.40
28715;DHT22;15886;49.170;14.572;2022-09-09T10:05:19;22.10;93.10
28715;DHT22;15886;49.170;14.572;2022-09-09T10:08:26;22.20;93.60
28715;DHT22;15886;49.170;14.572;2022-09-09T10:11:41;22.30;92.20
28715;DHT22;15886;49.170;14.572;2022-09-09T10:21:46;22.30;93.20
28715;DHT22;15886;49.170;14.572;2022-09-09T10:27:55;22.30;93.40
28715;DHT22;15886;49.170;14.572;2022-09-09T10:33:13;22.30;92.30
28715;DHT22;15886;49.170;14.572;2022-09-09T10:36:06;22.30;92.90
28715;DHT22;15886;49.170;14.572;2022-09-09T10:39:35;22.40;93.20
28715;DHT22;15886;49.170;14.572;2022-09-09T10:42:16;22.30;91.00
28715;DHT22;15886;49.170;14.572;2022-09-09T10:45:18;22.20;91.60
28715;DHT22;15886;49.170;14.572;2022-09-09T10:47:59;22.30;91.40
28715;DHT22;15886;49.170;14.572;2022-09-09T10:55:08;22.40;92.50
28715;DHT22;15886;49.170;14.572;2022-09-09T10:57:34;22.20;91.50
28715;DHT22;15886;49.170;14.572;2022-09-09T11:00:23;22.20;91.20
28715;DHT22;15886;49.170;14.572;2022-09-09T11:03:03;22.10;91.40
28715;DHT22;15886;49.170;14.572;2022-09-09T11:06:19;22.10;91.90
28715;DHT22;15886;49.170;14.572;2022-09-09T11:09:00;22.20;91.70
28715;DHT22;15886;49.170;14.572;2022-09-09T11:11:57;22.00;91.90
28715;DHT22;15886;49.170;14.572;2022-09-09T11:15:06;22.00;92.00
28715;DHT22;15886;49.170;14.572;2022-09-09T11:18:16;21.90;91.40
28715;DHT22;15886;49.170;14.572;2022-09-09T11:21:01;21.80;91.60
28715;DHT22;15886;49.170;14.572;2022-09-09T11:30:04;21.50;92.30
28715;DHT22;15886;49.170;14.572;2022-09-09T11:33:05;21.50;92.70
28715;DHT22;15886;49.170;14.572;2022-09-09T11:38:56;21.40;92.50
28715;DHT22;15886;49.170;14.572;2022-09-09T11:41:35;21.50;92.90
28715;DHT22;15886;49.170;14.572;2022-09-09T11:44:36;21.40;93.20
28715;DHT22;15886;49.170;14.572;2022-09-09T11:51:03;21.20;93.30
28715;DHT22;15886;49.170;14.572;2022-09-09T11:53:47;21.30;92.70
28715;DHT22;15886;49.170;14.572;2022-09-09T11:56:55;21.20;92.90
28715;DHT22;15886;49.170;14.572;2022-09-09T11:59:33;21.10;93.10
28715;DHT22;15886;49.170;14.572;2022-09-09T12:02:23;21.30;93.40
28715;DHT22;15886;49.170;14.572;2022-09-09T12:05:10;21.20;93.20
28715;DHT22;15886;49.170;14.572;2022-09-09T12:08:27;21.10;93.90
28715;DHT22;15886;49.170;14.572;2022-09-09T12:11:00;21.00;93.90
28715;DHT22;15886;49.170;14.572;2022-09-09T12:13:36;21.00;93.80
28715;DHT22;15886;49.170;14.572;2022-09-09T12:16:36;20.80;94.40
28715;DHT22;15886;49.170;14.572;2022-09-09T12:19:16;20.70;94.30
28715;DHT22;15886;49.170;14.572;2022-09-09T12:21:58;20.80;94.70
28715;DHT22;15886;49.170;14.572;2022-09-09T12:27:34;20.90;95.20
28715;DHT22;15886;49.170;14.572;2022-09-09T12:30:10;21.00;94.60
28715;DHT22;15886;49.170;14.572;2022-09-09T12:33:06;21.00;94.30
28715;DHT22;15886;49.170;14.572;2022-09-09T12:35:37;21.00;93.90
28715;DHT22;15886;49.170;14.572;2022-09-09T12:38:13;20.80;94.20
28715;DHT22;15886;49.170;14.572;2022-09-09T12:40:54;20.60;94.20
28715;DHT22;15886;49.170;14.572;2022-09-09T12:43:26;20.40;94.30
28715;DHT22;15886;49.170;14.572;2022-09-09T12:46:20;20.30;94.50
28715;DHT22;15886;49.170;14.572;2022-09-09T12:48:58;20.40;94.90
28715;DHT22;15886;49.170;14.572;2022-09-09T12:51:35;20.60;94.80
28715;DHT22;15886;49.170;14.572;2022-09-09T12:54:12;20.40;95.10
28715;DHT22;15886;49.170;14.572;2022-09-09T12:56:46;20.50;94.50
28715;DHT22;15886;49.170;14.572;2022-09-09T12:59:38;20.30;95.10
28715;DHT22;15886;49.170;14.572;2022-09-09T13:02:25;20.30;95.20
28715;DHT22;15886;49.170;14.572;2022-09-09T13:04:53;20.20;95.70
28715;DHT22;15886;49.170;14.572;2022-09-09T13:07:21;20.10;94.90
28715;DHT22;15886;49.170;14.572;2022-09-09T13:09:50;20.10;94.80
28715;DHT22;15886;49.170;14.572;2022-09-09T13:12:21;20.20;94.20
28715;DHT22;15886;49.170;14.572;2022-09-09T13:14:55;20.20;94.50
28715;DHT22;15886;49.170;14.572;2022-09-09T13:17:26;20.30;94.40
28715;DHT22;15886;49.170;14.572;2022-09-09T13:19:57;20.30;94.70
28715;DHT22;15886;49.170;14.572;2022-09-09T13:22:43;20.30;94.00
28715;DHT22;15886;49.170;14.572;2022-09-09T13:27:41;20.20;94.40
28715;DHT22;15886;49.170;14.572;2022-09-09T13:30:32;20.20;94.30
28715;DHT22;15886;49.170;14.572;2022-09-09T13:35:49;20.10;94.20
28715;DHT22;15886;49.170;14.572;2022-09-09T13:38:18;19.90;94.20
28715;DHT22;15886;49.170;14.572;2022-09-09T13:40:57;19.90;94.70
28715;DHT22;15886;49.170;14.572;2022-09-09T13:43:27;19.90;94.30
28715;DHT22;15886;49.170;14.572;2022-09-09T13:46:01;19.80;94.60
28715;DHT22;15886;49.170;14.572;2022-09-09T13:48:29;19.80;94.70
28715;DHT22;15886;49.170;14.572;2022-09-09T13:51:01;19.70;94.90
28715;DHT22;15886;49.170;14.572;2022-09-09T13:53:32;19.70;95.40
28715;DHT22;15886;49.170;14.572;2022-09-09T13:56:01;19.80;95.30
28715;DHT22;15886;49.170;14.572;2022-09-09T13:58:30;19.60;96.00
28715;DHT22;15886;49.170;14.572;2022-09-09T14:00:58;19.50;95.90
28715;DHT22;15886;49.170;14.572;2022-09-09T14:03:26;19.20;96.80
28715;DHT22;15886;49.170;14.572;2022-09-09T14:05:54;19.20;97.10
28715;DHT22;15886;49.170;14.572;2022-09-09T14:08:26;19.20;97.80
28715;DHT22;15886;49.170;14.572;2022-09-09T14:11:13;18.90;98.40
28715;DHT22;15886;49.170;14.572;2022-09-09T14:13:41;18.70;99.60
28715;DHT22;15886;49.170;14.572;2022-09-09T14:16:10;18.90;99.90
28715;DHT22;15886;49.170;14.572;2022-09-09T14:18:38;18.90;99.90
28715;DHT22;15886;49.170;14.572;2022-09-09T14:23:59;19.30;99.90
28715;DHT22;15886;49.170;14.572;2022-09-09T14:26:46;19.50;99.90
28715;DHT22;15886;49.170;14.572;2022-09-09T14:32:24;19.90;99.60
28715;DHT22;15886;49.170;14.572;2022-09-09T14:34:57;20.10;99.50
28715;DHT22;15886;49.170;14.572;2022-09-09T14:37:25;20.20;99.00
28715;DHT22;15886;49.170;14.572;2022-09-09T14:39:54;19.80;98.60
28715;DHT22;15886;49.170;14.572;2022-09-09T14:42:22;19.70;98.90
28715;DHT22;15886;49.170;14.572;2022-09-09T14:44:51;19.60;99.50
28715;DHT22;15886;49.170;14.572;2022-09-09T14:47:18;19.70;99.30
28715;DHT22;15886;49.170;14.572;2022-09-09T14:49:47;19.80;99.60
28715;DHT22;15886;49.170;14.572;2022-09-09T14:52:17;19.80;99.30
28715;DHT22;15886;49.170;14.572;2022-09-09T14:54:45;19.90;99.20
28715;DHT22;15886;49.170;14.572;2022-09-09T14:57:13;20.00;99.30
28715;DHT22;15886;49.170;14.572;2022-09-09T14:59:41;20.00;98.60
28715;DHT22;15886;49.170;14.572;2022-09-09T15:02:09;20.20;98.50
28715;DHT22;15886;49.170;14.572;2022-09-09T15:04:37;20.30;98.70
28715;DHT22;15886;49.170;14.572;2022-09-09T15:07:06;20.40;98.50
28715;DHT22;15886;49.170;14.572;2022-09-09T15:09:37;20.50;98.10
28715;DHT22;15886;49.170;14.572;2022-09-09T15:12:08;20.60;98.00
28715;DHT22;15886;49.170;14.572;2022-09-09T15:14:43;20.70;98.00
28715;DHT22;15886;49.170;14.572;2022-09-09T15:17:20;20.70;98.00
28715;DHT22;15886;49.170;14.572;2022-09-09T15:20:08;20.80;98.20
28715;DHT22;15886;49.170;14.572;2022-09-09T15:23:22;20.90;97.60
28715;DHT22;15886;49.170;14.572;2022-09-09T15:26:23;20.70;97.90
28715;DHT22;15886;49.170;14.572;2022-09-09T15:28:54;20.70;98.00
28715;DHT22;15886;49.170;14.572;2022-09-09T15:31:25;20.70;97.50
28715;DHT22;15886;49.170;14.572;2022-09-09T15:34:07;20.70;97.60
28715;DHT22;15886;49.170;14.572;2022-09-09T15:36:42;20.60;97.80
28715;DHT22;15886;49.170;14.572;2022-09-09T15:39:27;20.50;97.80
28715;DHT22;15886;49.170;14.572;2022-09-09T15:41:55;20.50;98.10
28715;DHT22;15886;49.170;14.572;2022-09-09T15:44:23;20.50;98.00
28715;DHT22;15886;49.170;14.572;2022-09-09T15:46:54;20.60;98.10
28715;DHT22;15886;49.170;14.572;2022-09-09T15:49:23;20.60;97.90
28715;DHT22;15886;49.170;14.572;2022-09-09T15:52:00;20.60;97.90
28715;DHT22;15886;49.170;14.572;2022-09-09T15:54:34;20.50;98.00
28715;DHT22;15886;49.170;14.572;2022-09-09T15:57:05;20.50;98.00
28715;DHT22;15886;49.170;14.572;2022-09-09T15:59:33;20.50;98.00
28715;DHT22;15886;49.170;14.572;2022-09-09T16:02:02;20.50;97.60
28715;DHT22;15886;49.170;14.572;2022-09-09T16:04:31;20.30;97.60
28715;DHT22;15886;49.170;14.572;2022-09-09T16:07:03;20.30;98.10
28715;DHT22;15886;49.170;14.572;2022-09-09T16:09:33;20.30;98.00
28715;DHT22;15886;49.170;14.572;2022-09-09T16:12:04;20.30;97.80
28715;DHT22;15886;49.170;14.572;2022-09-09T16:14:34;20.40;97.80
28715;DHT22;15886;49.170;14.572;2022-09-09T16:17:04;20.40;97.60
28715;DHT22;15886;49.170;14.572;2022-09-09T16:19:33;20.40;97.50
28715;DHT22;15886;49.170;14.572;2022-09-09T16:22:03;20.40;97.40
28715;DHT22;15886;49.170;14.572;2022-09-09T16:24:32;20.40;97.90
28715;DHT22;15886;49.170;14.572;2022-09-09T16:27:00;20.30;98.20
28715;DHT22;15886;49.170;14.572;2022-09-09T16:29:28;20.40;97.80
28715;DHT22;15886;49.170;14.572;2022-09-09T16:31:58;20.30;97.90
28715;DHT22;15886;49.170;14.572;2022-09-09T16:34:29;20.30;97.80
28715;DHT22;15886;49.170;14.572;2022-09-09T16:36:58;20.20;97.80
28715;DHT22;15886;49.170;14.572;2022-09-09T16:39:26;20.10;98.00
28715;DHT22;15886;49.170;14.572;2022-09-09T16:41:54;20.10;98.10
28715;DHT22;15886;49.170;14.572;2022-09-09T16:44:22;20.20;98.20
28715;DHT22;15886;49.170;14.572;2022-09-09T16:46:50;20.20;97.90
28715;DHT22;15886;49.170;14.572;2022-09-09T16:49:21;20.00;98.10
28715;DHT22;15886;49.170;14.572;2022-09-09T16:51:50;20.00;98.00
28715;DHT22;15886;49.170;14.572;2022-09-09T16:54:22;19.90;97.70
28715;DHT22;15886;49.170;14.572;2022-09-09T16:56:54;19.90;97.60
28715;DHT22;15886;49.170;14.572;2022-09-09T16:59:22;19.60;97.60
28715;DHT22;15886;49.170;14.572;2022-09-09T17:01:55;19.60;98.00
28715;DHT22;15886;49.170;14.572;2022-09-09T17:04:27;19.70;98.20
28715;DHT22;15886;49.170;14.572;2022-09-09T17:06:56;19.80;98.40
28715;DHT22;15886;49.170;14.572;2022-09-09T17:09:25;19.70;97.90
28715;DHT22;15886;49.170;14.572;2022-09-09T17:12:00;19.80;98.10
28715;DHT22;15886;49.170;14.572;2022-09-09T17:14:32;19.90;98.30
28715;DHT22;15886;49.170;14.572;2022-09-09T17:23:30;20.00;98.10
28715;DHT22;15886;49.170;14.572;2022-09-09T17:26:01;20.00;97.70
28715;DHT22;15886;49.170;14.572;2022-09-09T17:28:38;20.00;98.00
28715;DHT22;15886;49.170;14.572;2022-09-09T17:31:13;20.00;98.10
28715;DHT22;15886;49.170;14.572;2022-09-09T17:33:52;20.00;98.00
28715;DHT22;15886;49.170;14.572;2022-09-09T17:36:29;20.00;97.80
28715;DHT22;15886;49.170;14.572;2022-09-09T17:39:03;20.00;97.70
28715;DHT22;15886;49.170;14.572;2022-09-09T17:41:58;20.00;97.70
28715;DHT22;15886;49.170;14.572;2022-09-09T17:45:10;20.00;97.30
28715;DHT22;15886;49.170;14.572;2022-09-09T17:48:18;19.90;97.20
28715;DHT22;15886;49.170;14.572;2022-09-09T17:50:46;20.00;97.60
28715;DHT22;15886;49.170;14.572;2022-09-09T17:53:16;20.00;97.70
28715;DHT22;15886;49.170;14.572;2022-09-09T17:55:44;20.00;97.70
28715;DHT22;15886;49.170;14.572;2022-09-09T17:58:14;20.00;97.80
28715;DHT22;15886;49.170;14.572;2022-09-09T18:00:43;20.00;97.80
28715;DHT22;15886;49.170;14.572;2022-09-09T18:03:11;20.00;97.70
28715;DHT22;15886;49.170;14.572;2022-09-09T18:05:41;20.00;97.60
28715;DHT22;15886;49.170;14.572;2022-09-09T18:08:09;20.00;97.60
28715;DHT22;15886;49.170;14.572;2022-09-09T18:10:37;20.00;97.60
28715;DHT22;15886;49.170;14.572;2022-09-09T18:13:05;19.90;97.50
28715;DHT22;15886;49.170;14.572;2022-09-09T18:15:37;19.90;97.50
28715;DHT22;15886;49.170;14.572;2022-09-09T18:18:14;19.90;97.40
28715;DHT22;15886;49.170;14.572;2022-09-09T18:20:43;19.90;97.50
28715;DHT22;15886;49.170;14.572;2022-09-09T18:23:12;19.90;97.40
28715;DHT22;15886;49.170;14.572;2022-09-09T18:25:40;19.80;97.20
28715;DHT22;15886;49.170;14.572;2022-09-09T18:28:08;19.70;97.00
28715;DHT22;15886;49.170;14.572;2022-09-09T18:30:39;19.70;97.00
28715;DHT22;15886;49.170;14.572;2022-09-09T18:33:07;19.70;97.20
28715;DHT22;15886;49.170;14.572;2022-09-09T18:35:36;19.70;97.30
28715;DHT22;15886;49.170;14.572;2022-09-09T18:38:04;19.70;97.20
28715;DHT22;15886;49.170;14.572;2022-09-09T18:40:32;19.60;97.10
28715;DHT22;15886;49.170;14.572;2022-09-09T18:43:00;19.60;97.20
28715;DHT22;15886;49.170;14.572;2022-09-09T18:45:28;19.50;96.90
28715;DHT22;15886;49.170;14.572;2022-09-09T18:47:56;19.50;97.30
28715;DHT22;15886;49.170;14.572;2022-09-09T18:50:24;19.50;97.50
28715;DHT22;15886;49.170;14.572;2022-09-09T18:52:52;19.50;97.60
28715;DHT22;15886;49.170;14.572;2022-09-09T18:55:20;19.50;97.30
28715;DHT22;15886;49.170;14.572;2022-09-09T18:57:48;19.40;97.10
28715;DHT22;15886;49.170;14.572;2022-09-09T19:00:17;19.40;97.20
28715;DHT22;15886;49.170;14.572;2022-09-09T19:02:48;19.30;97.20
28715;DHT22;15886;49.170;14.572;2022-09-09T19:05:18;19.30;97.30
28715;DHT22;15886;49.170;14.572;2022-09-09T19:07:46;19.30;97.40
28715;DHT22;15886;49.170;14.572;2022-09-09T19:10:14;19.30;97.60
28715;DHT22;15886;49.170;14.572;2022-09-09T19:12:42;19.30;97.60
28715;DHT22;15886;49.170;14.572;2022-09-09T19:15:10;19.20;97.60
28715;DHT22;15886;49.170;14.572;2022-09-09T19:17:38;19.20;98.10
28715;DHT22;15886;49.170;14.572;2022-09-09T19:20:06;19.30;97.90
28715;DHT22;15886;49.170;14.572;2022-09-09T19:22:35;19.30;97.80
28715;DHT22;15886;49.170;14.572;2022-09-09T19:25:04;19.30;97.60
28715;DHT22;15886;49.170;14.572;2022-09-09T19:27:33;19.30;97.50
28715;DHT22;15886;49.170;14.572;2022-09-09T19:30:01;19.30;97.40
28715;DHT22;15886;49.170;14.572;2022-09-09T19:32:29;19.30;97.20
28715;DHT22;15886;49.170;14.572;2022-09-09T19:35:17;19.30;97.10
28715;DHT22;15886;49.170;14.572;2022-09-09T19:37:46;19.30;97.00
28715;DHT22;15886;49.170;14.572;2022-09-09T19:40:14;19.20;97.00
28715;DHT22;15886;49.170;14.572;2022-09-09T19:42:42;19.30;97.00
28715;DHT22;15886;49.170;14.572;2022-09-09T19:45:10;19.20;97.00
28715;DHT22;15886;49.170;14.572;2022-09-09T19:47:38;19.20;96.90
28715;DHT22;15886;49.170;14.572;2022-09-09T19:50:06;19.20;96.90
28715;DHT22;15886;49.170;14.572;2022-09-09T19:52:35;19.20;97.00
28715;DHT22;15886;49.170;14.572;2022-09-09T19:55:03;19.20;97.00
28715;DHT22;15886;49.170;14.572;2022-09-09T19:57:31;19.20;96.90
28715;DHT22;15886;49.170;14.572;2022-09-09T19:59:59;19.20;96.90
28715;DHT22;15886;49.170;14.572;2022-09-09T20:02:27;19.20;96.70
28715;DHT22;15886;49.170;14.572;2022-09-09T20:04:55;19.20;96.70
28715;DHT22;15886;49.170;14.572;2022-09-09T20:07:23;19.10;97.00
28715;DHT22;15886;49.170;14.572;2022-09-09T20:09:51;19.10;96.60
28715;DHT22;15886;49.170;14.572;2022-09-09T20:12:21;19.10;96.60
28715;DHT22;15886;49.170;14.572;2022-09-09T20:14:49;19.10;96.80
28715;DHT22;15886;49.170;14.572;2022-09-09T20:17:17;19.10;96.90
28715;DHT22;15886;49.170;14.572;2022-09-09T20:19:45;19.10;97.00
28715;DHT22;15886;49.170;14.572;2022-09-09T20:22:13;19.00;96.60
28715;DHT22;15886;49.170;14.572;2022-09-09T20:24:41;19.00;96.50
28715;DHT22;15886;49.170;14.572;2022-09-09T20:27:10;19.00;96.70
28715;DHT22;15886;49.170;14.572;2022-09-09T20:29:39;19.00;96.50
28715;DHT22;15886;49.170;14.572;2022-09-09T20:32:07;19.00;96.60
28715;DHT22;15886;49.170;14.572;2022-09-09T20:34:36;19.00;96.70
28715;DHT22;15886;49.170;14.572;2022-09-09T20:37:04;18.90;96.70
28715;DHT22;15886;49.170;14.572;2022-09-09T20:39:32;19.00;96.90
28715;DHT22;15886;49.170;14.572;2022-09-09T20:42:03;18.90;97.20
28715;DHT22;15886;49.170;14.572;2022-09-09T20:44:31;19.00;97.30
28715;DHT22;15886;49.170;14.572;2022-09-09T20:46:59;19.00;97.30
28715;DHT22;15886;49.170;14.572;2022-09-09T20:49:32;19.00;97.50
28715;DHT22;15886;49.170;14.572;2022-09-09T20:52:03;19.00;97.50
28715;DHT22;15886;49.170;14.572;2022-09-09T20:54:31;19.00;97.60
28715;DHT22;15886;49.170;14.572;2022-09-09T20:57:00;19.00;97.30
28715;DHT22;15886;49.170;14.572;2022-09-09T20:59:29;19.00;97.50
28715;DHT22;15886;49.170;14.572;2022-09-09T21:02:01;19.00;97.40
28715;DHT22;15886;49.170;14.572;2022-09-09T21:04:29;19.10;97.40
28715;DHT22;15886;49.170;14.572;2022-09-09T21:06:57;19.00;97.30
28715;DHT22;15886;49.170;14.572;2022-09-09T21:09:27;19.00;97.30
28715;DHT22;15886;49.170;14.572;2022-09-09T21:11:55;19.00;97.00
28715;DHT22;15886;49.170;14.572;2022-09-09T21:14:23;19.10;96.80
28715;DHT22;15886;49.170;14.572;2022-09-09T21:16:51;19.00;96.50
28715;DHT22;15886;49.170;14.572;2022-09-09T21:19:19;19.10;96.30
28715;DHT22;15886;49.170;14.572;2022-09-09T21:21:47;19.00;96.40
28715;DHT22;15886;49.170;14.572;2022-09-09T21:24:15;19.00;96.20
28715;DHT22;15886;49.170;14.572;2022-09-09T21:26:43;19.00;96.00
28715;DHT22;15886;49.170;14.572;2022-09-09T21:29:12;18.90;95.50
28715;DHT22;15886;49.170;14.572;2022-09-09T21:31:40;18.80;95.50
28715;DHT22;15886;49.170;14.572;2022-09-09T21:34:08;18.80;95.90
28715;DHT22;15886;49.170;14.572;2022-09-09T21:36:36;18.80;95.80
28715;DHT22;15886;49.170;14.572;2022-09-09T21:39:04;18.80;95.50
28715;DHT22;15886;49.170;14.572;2022-09-09T21:41:32;18.80;96.10
28715;DHT22;15886;49.170;14.572;2022-09-09T21:44:00;18.80;96.20
28715;DHT22;15886;49.170;14.572;2022-09-09T21:46:28;18.90;96.20
28715;DHT22;15886;49.170;14.572;2022-09-09T21:48:57;18.80;96.10
28715;DHT22;15886;49.170;14.572;2022-09-09T21:51:25;18.90;96.30
28715;DHT22;15886;49.170;14.572;2022-09-09T21:53:54;18.90;96.30
28715;DHT22;15886;49.170;14.572;2022-09-09T21:56:23;18.90;96.50
28715;DHT22;15886;49.170;14.572;2022-09-09T21:58:56;18.90;96.50
28715;DHT22;15886;49.170;14.572;2022-09-09T22:01:24;18.90;96.60
28715;DHT22;15886;49.170;14.572;2022-09-09T22:03:52;18.90;96.50
28715;DHT22;15886;49.170;14.572;2022-09-09T22:06:20;18.80;96.30
28715;DHT22;15886;49.170;14.572;2022-09-09T22:08:48;18.80;96.20
28715;DHT22;15886;49.170;14.572;2022-09-09T22:11:19;18.90;95.90
28715;DHT22;15886;49.170;14.572;2022-09-09T22:13:49;18.90;95.90
28715;DHT22;15886;49.170;14.572;2022-09-09T22:16:19;18.80;95.70
28715;DHT22;15886;49.170;14.572;2022-09-09T22:18:52;18.80;95.30
28715;DHT22;15886;49.170;14.572;2022-09-09T22:21:20;18.80;95.40
28715;DHT22;15886;49.170;14.572;2022-09-09T22:23:57;18.70;95.00
28715;DHT22;15886;49.170;14.572;2022-09-09T22:26:28;18.70;94.80
28715;DHT22;15886;49.170;14.572;2022-09-09T22:28:56;18.60;94.40
28715;DHT22;15886;49.170;14.572;2022-09-09T22:31:25;18.50;94.20
28715;DHT22;15886;49.170;14.572;2022-09-09T22:33:54;18.40;94.70